Time;durP1;ratioP1;P1;durP2;ratioP2;P2;SDS_P1;SDS_P2;PMS_P1;PMS_P2;Temp;Humidity;BMP_temperature;BMP_pressure;BME280_temperature;BME280_humidity;BME280_pressure;Samples;Min_cycle;Max_cycle;Signal;HPM_P1;HPM_P2
2023/11/10 00:01:16;;;;;;;10.18;2.97;;;7.90;99.90;;;;;;5030722;28;20193;-80
2023/11/10 00:03:42;;;;;;;7.50;2.47;;;7.90;99.90;;;;;;5040209;28;20025;-81
2023/11/10 00:06:08;;;;;;;7.25;2.63;;;7.90;99.90;;;;;;5042517;28;20102;-81
2023/11/10 00:08:33;;;;;;;7.22;2.80;;;7.90;99.90;;;;;;5033138;28;20021;-80
2023/11/10 00:10:59;;;;;;;5.43;2.47;;;7.90;99.90;;;;;;5036091;28;20041;-80
2023/11/10 00:13:25;;;;;;;7.68;2.60;;;7.90;99.90;;;;;;5040728;28;20022;-79
2023/11/10 00:15:51;;;;;;;6.55;2.85;;;7.90;99.90;;;;;;5038488;28;20021;-81
2023/11/10 00:18:16;;;;;;;10.20;3.08;;;7.90;99.90;;;;;;5034335;28;20083;-81
2023/11/10 00:20:42;;;;;;;6.85;2.83;;;7.90;99.90;;;;;;5040006;28;20380;-81
2023/11/10 00:23:08;;;;;;;6.70;2.85;;;7.90;99.90;;;;;;5041956;28;20504;-81
2023/11/10 00:25:35;;;;;;;6.50;2.72;;;7.90;99.90;;;;;;5034277;28;20017;-81
2023/11/10 00:28:04;;;;;;;7.75;2.85;;;7.90;99.90;;;;;;5035407;28;20030;-80
2023/11/10 00:30:30;;;;;;;7.05;2.50;;;7.90;99.90;;;;;;5041661;28;20033;-80
2023/11/10 00:32:56;;;;;;;4.88;2.72;;;7.90;99.90;;;;;;5038384;28;20051;-81
2023/11/10 00:35:21;;;;;;;11.02;3.08;;;7.90;99.90;;;;;;5033964;28;20581;-81
2023/11/10 00:37:50;;;;;;;6.47;2.42;;;7.90;99.90;;;;;;5038820;28;20896;-81
2023/11/10 00:40:16;;;;;;;8.45;2.63;;;7.90;99.90;;;;;;5040758;28;20073;-81
2023/11/10 00:42:41;;;;;;;6.65;2.45;;;7.90;99.90;;;;;;5033061;28;20029;-81
2023/11/10 00:45:07;;;;;;;7.90;2.55;;;7.90;99.90;;;;;;5035143;28;20021;-80
2023/11/10 00:47:33;;;;;;;8.65;2.90;;;8.00;99.90;;;;;;5027446;28;20039;-81
2023/11/10 00:49:58;;;;;;;6.38;2.60;;;8.00;99.90;;;;;;5037358;28;20024;-81
2023/11/10 00:52:24;;;;;;;8.90;2.40;;;8.00;99.90;;;;;;5034979;28;20029;-81
2023/11/10 00:54:50;;;;;;;4.97;2.05;;;8.00;99.90;;;;;;5032387;28;20021;-81
2023/11/10 00:57:17;;;;;;;7.05;2.40;;;8.00;99.90;;;;;;5041742;28;20017;-82
2023/11/10 00:59:43;;;;;;;6.28;2.88;;;8.10;99.90;;;;;;5035164;28;20020;-81
2023/11/10 01:02:10;;;;;;;5.30;1.98;;;8.10;99.90;;;;;;5043368;28;20036;-80
2023/11/10 01:04:35;;;;;;;8.68;2.40;;;8.10;99.90;;;;;;5031787;28;20038;-81
2023/11/10 01:07:01;;;;;;;7.50;2.03;;;8.20;99.90;;;;;;5034295;28;20085;-80
2023/11/10 01:09:27;;;;;;;5.63;2.00;;;8.20;99.90;;;;;;5033206;28;20116;-81
2023/11/10 01:11:53;;;;;;;7.13;2.13;;;8.20;99.90;;;;;;5040620;28;20087;-80
2023/11/10 01:14:20;;;;;;;7.32;2.20;;;8.20;99.90;;;;;;5038996;28;20447;-81
2023/11/10 01:16:46;;;;;;;7.25;2.30;;;8.20;99.90;;;;;;5029435;28;20029;-81
2023/11/10 01:19:12;;;;;;;7.97;2.30;;;8.20;99.90;;;;;;5037430;28;20040;-82
2023/11/10 01:21:37;;;;;;;7.55;2.55;;;8.20;99.90;;;;;;5030903;28;20056;-81
2023/11/10 01:24:04;;;;;;;6.70;2.40;;;8.20;99.90;;;;;;5034384;28;20500;-82
2023/11/10 01:26:29;;;;;;;6.15;1.90;;;8.20;99.90;;;;;;5032846;28;20021;-81
2023/11/10 01:28:55;;;;;;;9.50;2.22;;;8.30;99.90;;;;;;5039612;28;20372;-81
2023/11/10 01:31:21;;;;;;;5.25;2.00;;;8.30;99.90;;;;;;5037093;28;20036;-82
2023/11/10 01:33:47;;;;;;;5.60;2.10;;;8.30;99.90;;;;;;5032949;28;20033;-80
2023/11/10 01:36:13;;;;;;;4.97;2.00;;;8.30;99.90;;;;;;5036995;28;20032;-81
2023/11/10 01:38:40;;;;;;;6.57;2.10;;;8.30;99.90;;;;;;5040572;28;20035;-81
2023/11/10 01:41:06;;;;;;;4.97;2.00;;;8.30;99.90;;;;;;5035085;28;20505;-81
2023/11/10 01:43:31;;;;;;;8.70;2.13;;;8.40;99.90;;;;;;5031516;28;20040;-81
2023/11/10 01:45:57;;;;;;;6.30;2.03;;;8.40;99.90;;;;;;5041123;28;20025;-82
2023/11/10 01:48:23;;;;;;;8.63;2.50;;;8.40;99.90;;;;;;5027031;28;20021;-82
2023/11/10 01:50:49;;;;;;;5.57;1.90;;;8.40;99.90;;;;;;5041416;28;20033;-81
2023/11/10 01:53:15;;;;;;;5.63;2.13;;;8.40;99.90;;;;;;5033311;28;20021;-82
2023/11/10 01:55:43;;;;;;;5.78;1.55;;;8.40;99.90;;;;;;5027578;28;20026;-82
2023/11/10 01:58:11;;;;;;;6.85;1.95;;;8.40;99.90;;;;;;5025841;28;20415;-82
2023/11/10 02:00:38;;;;;;;5.10;1.90;;;8.50;99.90;;;;;;5039713;28;20025;-81
2023/11/10 02:03:05;;;;;;;7.13;2.47;;;8.50;99.90;;;;;;5039440;28;20100;-80
2023/11/10 02:05:36;;;;;;;4.63;1.58;;;8.50;99.90;;;;;;5027232;28;20021;-81
2023/11/10 02:08:06;;;;;;;6.35;2.13;;;8.50;99.90;;;;;;5028815;28;20064;-81
2023/11/10 02:10:32;;;;;;;6.37;1.87;;;8.50;99.90;;;;;;5038496;28;20041;-82
2023/11/10 02:12:59;;;;;;;5.75;1.65;;;8.50;99.90;;;;;;5041066;28;20036;-80
2023/11/10 02:15:25;;;;;;;6.55;1.77;;;8.50;99.90;;;;;;5032429;28;20028;-79
2023/11/10 02:17:51;;;;;;;4.97;1.52;;;8.60;99.90;;;;;;5032937;28;20430;-81
2023/11/10 02:20:17;;;;;;;4.93;1.73;;;8.60;99.90;;;;;;5033327;28;20527;-81
2023/11/10 02:22:44;;;;;;;7.32;1.60;;;8.60;99.90;;;;;;5039922;28;20041;-80
2023/11/10 02:25:16;;;;;;;5.82;1.90;;;8.60;99.90;;;;;;5045039;28;20025;-82
2023/11/10 02:27:42;;;;;;;6.95;1.63;;;8.60;99.90;;;;;;5030522;28;20163;-79
2023/11/10 02:30:09;;;;;;;6.00;1.92;;;8.60;99.90;;;;;;5044989;28;20470;-82
2023/11/10 02:32:36;;;;;;;6.22;2.17;;;8.60;99.90;;;;;;5030834;28;20501;-80
2023/11/10 02:35:04;;;;;;;6.15;1.92;;;8.60;99.90;;;;;;5045228;28;20497;-82
2023/11/10 02:37:30;;;;;;;5.18;1.65;;;8.60;99.90;;;;;;5023869;28;20104;-81
2023/11/10 02:39:55;;;;;;;5.63;1.70;;;8.60;99.90;;;;;;5039177;28;20133;-82
2023/11/10 02:42:21;;;;;;;8.10;1.88;;;8.60;99.90;;;;;;5045102;28;20044;-80
2023/11/10 02:44:47;;;;;;;4.63;1.83;;;8.60;99.90;;;;;;5031776;28;20483;-80
2023/11/10 02:47:12;;;;;;;4.97;1.70;;;8.60;99.90;;;;;;5044730;28;20118;-81
2023/11/10 02:49:38;;;;;;;7.07;2.13;;;8.60;99.90;;;;;;5038924;28;20500;-82
2023/11/10 02:52:04;;;;;;;6.32;1.70;;;8.50;99.90;;;;;;5036445;28;20423;-81
2023/11/10 02:54:30;;;;;;;7.05;1.95;;;8.60;99.90;;;;;;5030873;28;20483;-81
2023/11/10 02:56:55;;;;;;;7.50;1.70;;;8.60;99.90;;;;;;5043033;28;20063;-82
2023/11/10 02:59:22;;;;;;;6.63;1.80;;;8.60;99.90;;;;;;5032546;28;20120;-81
2023/11/10 03:01:47;;;;;;;3.63;1.55;;;8.60;99.90;;;;;;5034383;28;20029;-81
2023/11/10 03:04:13;;;;;;;8.90;1.80;;;8.60;99.90;;;;;;5031081;28;20021;-82
2023/11/10 03:06:39;;;;;;;4.25;1.40;;;8.60;99.90;;;;;;5044919;28;20034;-82
2023/11/10 03:09:04;;;;;;;7.03;1.63;;;8.60;99.90;;;;;;5040684;28;20029;-82
2023/11/10 03:11:30;;;;;;;2.60;1.17;;;8.60;99.90;;;;;;5034962;28;20045;-82
2023/11/10 03:13:56;;;;;;;6.32;1.90;;;8.60;99.90;;;;;;5042522;28;20040;-82
2023/11/10 03:16:22;;;;;;;3.75;1.40;;;8.70;99.90;;;;;;5044781;28;20111;-81
2023/11/10 03:18:52;;;;;;;3.30;1.30;;;8.70;99.90;;;;;;5035547;28;20063;-81
2023/11/10 03:21:18;;;;;;;4.80;1.73;;;8.70;99.90;;;;;;5036237;28;20445;-80
2023/11/10 03:23:45;;;;;;;2.85;1.00;;;8.70;99.90;;;;;;5030201;28;20018;-82
2023/11/10 03:26:11;;;;;;;4.70;1.60;;;8.70;99.90;;;;;;5030293;28;20498;-81
2023/11/10 03:28:36;;;;;;;4.30;1.83;;;8.70;99.90;;;;;;5042136;28;20021;-81
2023/11/10 03:31:06;;;;;;;4.30;1.50;;;8.70;99.90;;;;;;5039796;28;20027;-82
2023/11/10 03:33:33;;;;;;;3.95;1.50;;;8.70;99.90;;;;;;5026376;28;20061;-81
2023/11/10 03:36:02;;;;;;;5.20;1.85;;;8.70;99.90;;;;;;5028885;28;20029;-83
2023/11/10 03:38:28;;;;;;;5.13;1.88;;;8.70;99.90;;;;;;5030621;28;20083;-81
2023/11/10 03:40:54;;;;;;;3.80;1.38;;;8.70;99.90;;;;;;5030851;28;20025;-82
2023/11/10 03:43:20;;;;;;;6.32;1.40;;;8.70;99.90;;;;;;5030990;28;20360;-82
2023/11/10 03:45:46;;;;;;;4.95;1.55;;;8.70;99.90;;;;;;5029904;28;20022;-82
2023/11/10 03:48:12;;;;;;;3.97;1.40;;;8.70;99.90;;;;;;5040843;28;20029;-82
2023/11/10 03:50:39;;;;;;;5.63;1.52;;;8.70;99.90;;;;;;5034238;28;20439;-82
2023/11/10 03:53:04;;;;;;;5.38;1.45;;;8.70;99.90;;;;;;5038324;28;20551;-83
2023/11/10 03:55:30;;;;;;;5.13;1.30;;;8.70;99.90;;;;;;5030968;28;20053;-83
2023/11/10 03:57:56;;;;;;;2.78;1.13;;;8.70;99.90;;;;;;5044076;28;20068;-82
2023/11/10 04:00:22;;;;;;;2.85;1.00;;;8.70;99.90;;;;;;5030876;28;20033;-82
2023/11/10 04:02:48;;;;;;;4.65;1.55;;;8.70;99.90;;;;;;5044610;28;20478;-83
2023/11/10 04:05:14;;;;;;;4.78;1.50;;;8.70;99.90;;;;;;5031197;28;20033;-82
2023/11/10 04:07:40;;;;;;;4.13;1.27;;;8.70;99.90;;;;;;5042558;28;20064;-83
2023/11/10 04:10:06;;;;;;;4.70;1.40;;;8.70;99.90;;;;;;5031179;28;20021;-83
2023/11/10 04:12:32;;;;;;;4.18;1.45;;;8.70;99.90;;;;;;5030251;28;20029;-83
2023/11/10 04:14:58;;;;;;;3.00;1.20;;;8.70;99.90;;;;;;5033398;28;20028;-83
2023/11/10 04:17:24;;;;;;;2.83;1.05;;;8.70;99.90;;;;;;5049941;28;20481;-82
2023/11/10 04:19:50;;;;;;;3.85;1.33;;;8.70;99.90;;;;;;5035965;28;20033;-83
2023/11/10 04:22:15;;;;;;;3.47;1.02;;;8.70;99.90;;;;;;5039343;28;20098;-83
2023/11/10 04:24:42;;;;;;;5.15;1.67;;;8.70;99.90;;;;;;5036288;28;20510;-81
2023/11/10 04:27:08;;;;;;;4.15;1.30;;;8.70;99.90;;;;;;5044083;28;20112;-83
2023/11/10 04:29:36;;;;;;;6.47;1.45;;;8.70;99.90;;;;;;5041580;28;20503;-82
2023/11/10 04:32:03;;;;;;;5.57;1.35;;;8.70;99.90;;;;;;5032267;28;20022;-84
2023/11/10 04:34:28;;;;;;;5.47;1.50;;;8.70;99.90;;;;;;5039396;28;20021;-83
2023/11/10 04:36:54;;;;;;;3.55;1.23;;;8.70;99.90;;;;;;5032861;28;20025;-83
2023/11/10 04:39:20;;;;;;;5.18;1.52;;;8.70;99.90;;;;;;5029173;28;20111;-83
2023/11/10 04:41:47;;;;;;;4.78;1.27;;;8.70;99.90;;;;;;5029966;28;20034;-84
2023/11/10 04:44:13;;;;;;;5.22;1.25;;;8.70;99.90;;;;;;5041910;28;20466;-82
2023/11/10 04:46:41;;;;;;;5.40;1.40;;;8.70;99.90;;;;;;5041291;28;20025;-83
2023/11/10 04:49:13;;;;;;;3.47;1.30;;;8.60;99.90;;;;;;5044801;28;20487;-84
2023/11/10 04:51:39;;;;;;;4.93;1.52;;;8.60;99.90;;;;;;5040547;28;20017;-84
2023/11/10 04:54:05;;;;;;;5.40;1.25;;;8.60;99.90;;;;;;5033177;28;20036;-82
2023/11/10 04:56:33;;;;;;;5.22;1.48;;;8.60;99.90;;;;;;5039220;28;20016;-83
2023/11/10 04:58:59;;;;;;;5.57;1.38;;;8.60;99.90;;;;;;5036526;28;20034;-84
2023/11/10 05:01:25;;;;;;;6.13;1.63;;;8.70;99.90;;;;;;5046378;28;20031;-83
2023/11/10 05:03:52;;;;;;;3.70;0.90;;;8.70;99.90;;;;;;5041627;28;20110;-81
2023/11/10 05:06:28;;;;;;;4.72;1.80;;;8.70;99.90;;;;;;5034636;28;20026;-84
2023/11/10 05:08:55;;;;;;;4.75;1.42;;;8.70;99.90;;;;;;5039515;28;20036;-83
2023/11/10 05:11:20;;;;;;;8.13;1.33;;;8.70;99.90;;;;;;5029798;28;20049;-83
2023/11/10 05:13:47;;;;;;;6.55;1.48;;;8.70;99.90;;;;;;5032715;28;20076;-82
2023/11/10 05:16:18;;;;;;;5.78;1.30;;;8.70;99.90;;;;;;5029023;28;20018;-83
2023/11/10 05:18:44;;;;;;;4.85;1.75;;;8.70;99.90;;;;;;5028567;28;20032;-84
2023/11/10 05:21:10;;;;;;;4.85;1.38;;;8.70;99.90;;;;;;5040912;28;20029;-83
2023/11/10 05:23:36;;;;;;;6.38;1.02;;;8.70;99.90;;;;;;5029379;28;20052;-84
2023/11/10 05:26:02;;;;;;;6.32;1.27;;;8.60;99.90;;;;;;5028519;28;20389;-84
2023/11/10 05:28:27;;;;;;;5.22;1.20;;;8.60;99.90;;;;;;5031079;28;20513;-85
2023/11/10 05:30:53;;;;;;;6.68;1.33;;;8.60;99.90;;;;;;5042106;28;20112;-83
2023/11/10 05:33:19;;;;;;;6.65;1.55;;;8.60;99.90;;;;;;5028270;28;20140;-85
2023/11/10 05:35:45;;;;;;;4.18;1.20;;;8.60;99.90;;;;;;5028912;28;20068;-84
2023/11/10 05:38:11;;;;;;;2.70;1.10;;;8.60;99.90;;;;;;5029650;28;20025;-81
2023/11/10 05:40:37;;;;;;;4.85;1.50;;;8.60;99.90;;;;;;5029747;28;20089;-83
2023/11/10 05:43:03;;;;;;;4.60;1.38;;;8.60;99.90;;;;;;5039105;28;20112;-84
2023/11/10 05:45:29;;;;;;;6.68;1.45;;;8.50;99.90;;;;;;5033243;28;20030;-82
2023/11/10 05:47:55;;;;;;;4.65;1.25;;;8.60;99.90;;;;;;5028071;28;20522;-84
2023/11/10 05:50:21;;;;;;;4.20;1.33;;;8.50;99.90;;;;;;5043160;28;20022;-84
2023/11/10 05:52:46;;;;;;;4.65;1.30;;;8.50;99.90;;;;;;5013886;28;20025;-83
2023/11/10 05:55:12;;;;;;;5.85;1.60;;;8.50;99.90;;;;;;5029740;28;20052;-80
2023/11/10 05:57:37;;;;;;;7.28;1.60;;;8.50;99.90;;;;;;5036571;28;20036;-83
2023/11/10 06:00:05;;;;;;;5.93;1.73;;;8.40;99.90;;;;;;5051522;28;20036;-83
2023/11/10 06:02:31;;;;;;;7.13;1.75;;;8.50;99.90;;;;;;5036407;28;20021;-82
2023/11/10 06:04:57;;;;;;;7.53;1.67;;;8.40;99.90;;;;;;5035775;28;20051;-83
2023/11/10 06:07:24;;;;;;;4.70;1.45;;;8.40;99.90;;;;;;5053178;28;20028;-84
2023/11/10 06:09:49;;;;;;;5.20;1.15;;;8.40;99.90;;;;;;5036312;28;20029;-83
2023/11/10 06:12:17;;;;;;;3.35;1.30;;;8.40;99.90;;;;;;5031497;28;20525;-84
2023/11/10 06:14:43;;;;;;;5.13;1.55;;;8.40;99.90;;;;;;5033159;28;20497;-83
2023/11/10 06:17:08;;;;;;;4.03;1.38;;;8.40;99.90;;;;;;5051051;28;20021;-83
2023/11/10 06:19:34;;;;;;;5.80;1.20;;;8.40;99.90;;;;;;5052116;28;20017;-83
2023/11/10 06:22:01;;;;;;;5.32;1.27;;;8.30;99.90;;;;;;5038433;28;20490;-82
2023/11/10 06:24:28;;;;;;;3.88;1.30;;;8.30;99.90;;;;;;5041733;28;20032;-83
2023/11/10 06:26:53;;;;;;;5.47;1.27;;;8.30;99.90;;;;;;5035281;28;20029;-83
2023/11/10 06:29:19;;;;;;;3.58;1.45;;;8.20;99.90;;;;;;5043320;28;20035;-83
2023/11/10 06:31:46;;;;;;;5.45;1.42;;;8.20;99.90;;;;;;5032680;28;20098;-82
2023/11/10 06:34:11;;;;;;;4.82;1.30;;;8.20;99.90;;;;;;5039090;28;20021;-84
2023/11/10 06:36:37;;;;;;;5.90;1.48;;;8.10;99.90;;;;;;5052736;28;20032;-83
2023/11/10 06:39:03;;;;;;;7.18;1.85;;;8.10;99.90;;;;;;5036384;28;20029;-84
2023/11/10 06:41:28;;;;;;;6.43;1.55;;;8.00;99.90;;;;;;5041155;28;20487;-83
2023/11/10 06:43:54;;;;;;;6.40;1.60;;;8.00;99.90;;;;;;5041762;28;20026;-82
2023/11/10 06:46:22;;;;;;;6.38;1.52;;;8.00;99.90;;;;;;5040257;28;20100;-85
2023/11/10 06:48:51;;;;;;;5.70;1.55;;;7.90;99.90;;;;;;5035398;28;20036;-84
2023/11/10 06:51:17;;;;;;;3.17;1.30;;;7.90;99.90;;;;;;5036597;28;20120;-84
2023/11/10 06:53:43;;;;;;;4.63;1.33;;;7.90;99.90;;;;;;5034079;28;20079;-85
2023/11/10 06:56:09;;;;;;;3.85;1.65;;;7.90;99.90;;;;;;5046367;28;20022;-84
2023/11/10 06:58:36;;;;;;;4.18;1.40;;;7.90;99.90;;;;;;5042084;28;20102;-83
2023/11/10 07:01:02;;;;;;;7.32;1.70;;;7.80;99.90;;;;;;5032303;28;20403;-83
2023/11/10 07:03:28;;;;;;;4.82;1.40;;;7.80;99.90;;;;;;5020808;28;20013;-81
2023/11/10 07:05:54;;;;;;;5.03;1.35;;;7.80;99.90;;;;;;5030128;28;20442;-84
2023/11/10 07:08:20;;;;;;;5.95;1.33;;;7.80;99.90;;;;;;5031468;28;20045;-83
2023/11/10 07:10:51;;;;;;;4.95;1.30;;;7.80;99.90;;;;;;5031415;28;20124;-84
2023/11/10 07:13:18;;;;;;;5.60;1.40;;;7.80;99.90;;;;;;5028594;28;20850;-84
2023/11/10 07:15:45;;;;;;;3.03;1.15;;;7.80;99.90;;;;;;5026917;28;20124;-83
2023/11/10 07:18:11;;;;;;;3.78;1.08;;;7.90;99.90;;;;;;5035004;28;20025;-85
2023/11/10 07:20:42;;;;;;;6.25;2.08;;;7.90;99.90;;;;;;5043920;28;20076;-85
2023/11/10 07:23:07;;;;;;;4.75;1.25;;;7.90;99.90;;;;;;5043488;28;20021;-85
2023/11/10 07:25:33;;;;;;;5.03;1.40;;;7.90;99.90;;;;;;5019767;28;20072;-84
2023/11/10 07:27:59;;;;;;;6.07;1.50;;;7.90;99.90;;;;;;5031478;28;20079;-85
2023/11/10 07:30:26;;;;;;;6.22;1.85;;;7.90;99.90;;;;;;5030406;28;20029;-84
2023/11/10 07:32:52;;;;;;;6.00;1.50;;;7.90;99.90;;;;;;5030981;28;20040;-85
2023/11/10 07:35:18;;;;;;;6.13;1.65;;;8.00;99.90;;;;;;5024131;28;20391;-84
2023/11/10 07:37:44;;;;;;;8.40;1.83;;;8.00;99.90;;;;;;5030992;28;20025;-85
2023/11/10 07:40:15;;;;;;;8.15;1.88;;;8.00;99.90;;;;;;5031575;28;20060;-83
2023/11/10 07:42:45;;;;;;;5.88;1.75;;;8.00;99.90;;;;;;5029437;28;20113;-84
2023/11/10 07:45:14;;;;;;;4.68;1.52;;;8.00;99.90;;;;;;5023125;28;20021;-85
2023/11/10 07:47:48;;;;;;;7.82;1.55;;;8.10;99.90;;;;;;5015632;28;20052;-84
2023/11/10 07:50:14;;;;;;;5.25;1.88;;;8.10;99.90;;;;;;5030798;28;20104;-84
2023/11/10 07:52:42;;;;;;;7.03;1.77;;;8.10;99.90;;;;;;5029799;28;20025;-84
2023/11/10 07:55:08;;;;;;;6.18;1.40;;;8.10;99.90;;;;;;5042591;28;20021;-85
2023/11/10 07:57:35;;;;;;;8.55;2.13;;;8.20;99.90;;;;;;5037706;28;20063;-85
2023/11/10 08:00:02;;;;;;;5.70;1.60;;;8.20;99.90;;;;;;5033251;28;20029;-85
2023/11/10 08:02:28;;;;;;;5.50;1.50;;;8.20;99.90;;;;;;5026490;28;20486;-85
2023/11/10 08:04:54;;;;;;;11.02;1.88;;;8.20;99.90;;;;;;5029020;28;20037;-84
2023/11/10 08:07:20;;;;;;;8.55;2.35;;;8.20;99.90;;;;;;5030926;28;20059;-86
2023/11/10 08:09:49;;;;;;;6.82;1.75;;;8.20;99.90;;;;;;5022874;28;20057;-86
2023/11/10 08:12:15;;;;;;;7.30;1.98;;;8.10;99.90;;;;;;5024696;28;20057;-86
2023/11/10 08:14:40;;;;;;;7.18;2.13;;;8.20;99.90;;;;;;5011902;28;20091;-86
2023/11/10 08:17:07;;;;;;;8.95;2.20;;;8.20;99.90;;;;;;5036005;28;20119;-86
2023/11/10 08:19:33;;;;;;;9.70;1.95;;;8.20;99.90;;;;;;5018849;28;20022;-87
2023/11/10 08:22:00;;;;;;;6.82;1.55;;;8.20;99.90;;;;;;5027144;28;20104;-86
2023/11/10 08:24:26;;;;;;;5.63;1.83;;;8.20;99.90;;;;;;5030877;28;20020;-85
2023/11/10 08:26:55;;;;;;;8.63;1.90;;;8.20;99.90;;;;;;5029970;28;20066;-89
2023/11/10 08:29:21;;;;;;;8.20;2.15;;;8.30;99.90;;;;;;5014279;28;20482;-86
2023/11/10 08:31:49;;;;;;;6.05;2.17;;;8.20;99.90;;;;;;5027420;28;20021;-86
2023/11/10 08:34:15;;;;;;;10.88;1.98;;;8.30;99.90;;;;;;5030361;28;20394;-85
2023/11/10 08:36:41;;;;;;;6.63;1.92;;;8.30;99.90;;;;;;5028813;28;20105;-84
2023/11/10 08:39:07;;;;;;;8.73;2.00;;;8.30;99.90;;;;;;5036337;28;20103;-83
2023/11/10 08:41:33;;;;;;;9.40;2.08;;;8.30;99.90;;;;;;5031433;28;20093;-85
2023/11/10 08:43:59;;;;;;;8.07;2.10;;;8.30;99.90;;;;;;5035257;28;20029;-86
2023/11/10 08:46:25;;;;;;;7.28;1.85;;;8.30;99.90;;;;;;5030993;28;20519;-85
2023/11/10 08:48:51;;;;;;;9.73;1.90;;;8.30;99.90;;;;;;5030373;28;20029;-89
2023/11/10 08:51:16;;;;;;;9.05;2.10;;;8.30;99.90;;;;;;5031202;28;20131;-86
2023/11/10 08:53:45;;;;;;;8.07;2.22;;;8.40;99.90;;;;;;5027165;28;20033;-86
2023/11/10 08:56:12;;;;;;;6.70;1.70;;;8.40;99.90;;;;;;5018099;28;20030;-87
2023/11/10 08:58:39;;;;;;;6.75;1.77;;;8.40;99.90;;;;;;5027370;28;20040;-80
2023/11/10 09:01:06;;;;;;;8.55;1.60;;;8.30;99.90;;;;;;5034525;28;20094;-82
2023/11/10 09:03:31;;;;;;;6.00;1.98;;;8.40;99.90;;;;;;5030133;28;20017;-86
2023/11/10 09:05:58;;;;;;;8.82;2.10;;;8.40;99.90;;;;;;5042572;28;20070;-86
2023/11/10 09:08:23;;;;;;;7.03;1.70;;;8.40;99.90;;;;;;5034990;28;20021;-86
2023/11/10 09:10:50;;;;;;;6.95;2.10;;;8.40;99.90;;;;;;5039874;28;20045;-90
2023/11/10 09:13:15;;;;;;;8.82;1.85;;;8.50;99.90;;;;;;5029155;28;20035;-87
2023/11/10 09:15:41;;;;;;;10.55;2.03;;;8.50;99.90;;;;;;5031424;28;20025;-86
2023/11/10 09:18:07;;;;;;;7.97;1.67;;;8.50;99.90;;;;;;5028980;28;20045;-85
2023/11/10 09:20:33;;;;;;;10.05;2.20;;;8.60;99.90;;;;;;5040783;28;20072;-85
2023/11/10 09:23:00;;;;;;;7.32;1.88;;;8.60;99.90;;;;;;5021182;28;20933;-80
2023/11/10 09:25:27;;;;;;;9.48;2.03;;;8.70;99.90;;;;;;5028884;28;20067;-82
2023/11/10 09:27:56;;;;;;;9.13;2.35;;;8.70;99.90;;;;;;5034385;28;20105;-81
2023/11/10 09:30:24;;;;;;;10.57;2.50;;;8.80;99.90;;;;;;5093817;22;20048;-85
2023/11/10 09:32:50;;;;;;;10.55;2.00;;;8.80;99.90;;;;;;5052121;28;20029;-83
2023/11/10 09:35:16;;;;;;;7.47;1.67;;;8.80;99.90;;;;;;5050860;28;20024;-84
2023/11/10 09:37:46;;;;;;;11.63;1.98;;;8.80;99.90;;;;;;5062254;28;20024;-83
2023/11/10 09:40:12;;;;;;;11.07;2.08;;;8.90;99.90;;;;;;5043844;28;20037;-84
2023/11/10 09:42:39;;;;;;;13.32;3.30;;;8.80;99.90;;;;;;5046882;28;20070;-83
2023/11/10 09:45:05;;;;;;;10.45;2.53;;;8.90;99.90;;;;;;5041333;28;20017;-83
2023/11/10 09:47:32;;;;;;;12.00;2.15;;;8.90;99.90;;;;;;5040717;28;20079;-80
2023/11/10 09:49:59;;;;;;;9.05;2.53;;;8.90;99.90;;;;;;5065526;28;20059;-86
2023/11/10 09:52:27;;;;;;;9.27;2.63;;;8.90;99.90;;;;;;5068042;28;20016;-86
2023/11/10 09:54:54;;;;;;;11.10;2.30;;;8.90;99.90;;;;;;5052389;28;20025;-82
2023/11/10 09:57:21;;;;;;;10.93;2.35;;;8.90;99.90;;;;;;5042194;28;20105;-85
2023/11/10 09:59:48;;;;;;;9.13;2.00;;;8.90;99.90;;;;;;5062692;28;20040;-84
2023/11/10 10:02:14;;;;;;;6.85;1.77;;;8.90;99.90;;;;;;5054362;28;20024;-84
2023/11/10 10:04:43;;;;;;;11.05;2.33;;;9.00;99.90;;;;;;5047351;28;20064;-87
2023/11/10 10:07:11;;;;;;;13.52;2.65;;;9.00;99.90;;;;;;5054111;28;20354;-85
2023/11/10 10:09:37;;;;;;;10.65;2.15;;;9.00;99.90;;;;;;5039913;28;20032;-83
2023/11/10 10:12:03;;;;;;;10.65;2.20;;;9.00;99.90;;;;;;5045316;28;20025;-84
2023/11/10 10:14:29;;;;;;;9.50;2.05;;;9.10;99.90;;;;;;5042418;28;20482;-85
2023/11/10 10:16:56;;;;;;;6.55;1.52;;;9.10;99.90;;;;;;5064006;28;20021;-83
2023/11/10 10:19:29;;;;;;;9.98;1.73;;;9.00;99.90;;;;;;5058462;28;20043;-83
2023/11/10 10:21:56;;;;;;;12.05;2.15;;;9.10;99.90;;;;;;5053140;28;20036;-84
2023/11/10 10:24:22;;;;;;;5.97;1.42;;;9.10;99.90;;;;;;5062389;28;20104;-83
2023/11/10 10:26:48;;;;;;;7.65;2.08;;;9.10;99.90;;;;;;5053680;28;20029;-84
2023/11/10 10:29:14;;;;;;;7.97;2.25;;;9.10;99.90;;;;;;5059479;28;20051;-85
2023/11/10 10:31:40;;;;;;;11.10;2.03;;;9.10;99.90;;;;;;5063124;28;20035;-84
2023/11/10 10:34:07;;;;;;;9.40;2.08;;;9.10;99.90;;;;;;5048255;28;20029;-83
2023/11/10 10:36:35;;;;;;;8.52;1.90;;;9.10;99.90;;;;;;5046966;28;20095;-83
2023/11/10 10:39:05;;;;;;;12.27;2.28;;;9.10;99.90;;;;;;5049199;28;20025;-83
2023/11/10 10:41:34;;;;;;;5.45;1.67;;;9.00;99.90;;;;;;5063086;28;20073;-81
2023/11/10 10:44:01;;;;;;;13.55;2.17;;;8.90;99.90;;;;;;5070457;28;20028;-83
2023/11/10 10:46:28;;;;;;;7.78;2.20;;;8.90;99.90;;;;;;5055868;28;20033;-82
2023/11/10 10:48:56;;;;;;;12.02;2.90;;;8.90;99.90;;;;;;5068178;28;20031;-80
2023/11/10 10:51:24;;;;;;;12.45;2.13;;;8.80;99.90;;;;;;5061677;28;20855;-81
2023/11/10 10:53:50;;;;;;;8.30;2.25;;;8.80;99.90;;;;;;5066303;28;20104;-81
2023/11/10 10:56:18;;;;;;;9.27;1.77;;;8.80;99.90;;;;;;5071377;28;20039;-81
2023/11/10 10:58:44;;;;;;;7.07;1.73;;;8.70;99.90;;;;;;5065090;28;20048;-83
2023/11/10 11:01:10;;;;;;;6.80;2.17;;;8.70;99.90;;;;;;5073023;28;20044;-81
2023/11/10 11:03:47;;;;;;;9.77;2.08;;;8.70;99.90;;;;;;5074034;28;20039;-83
2023/11/10 11:06:40;;;;;;;7.53;2.08;;;8.70;99.90;;;;;;5053879;28;20029;-81
2023/11/10 11:09:23;;;;;;;7.13;1.70;;;8.70;99.90;;;;;;5052785;28;20033;-82
2023/11/10 11:12:23;;;;;;;6.88;1.80;;;8.60;99.90;;;;;;5049705;28;20024;-81
2023/11/10 11:14:52;;;;;;;6.78;1.65;;;8.60;99.90;;;;;;5055931;28;20029;-81
2023/11/10 11:17:49;;;;;;;10.80;1.67;;;8.60;99.90;;;;;;5060546;28;20512;-81
2023/11/10 11:20:16;;;;;;;10.15;2.22;;;8.60;99.90;;;;;;5044040;28;20060;-80
2023/11/10 11:22:43;;;;;;;6.32;1.75;;;8.50;99.90;;;;;;5047507;28;20029;-81
2023/11/10 11:25:12;;;;;;;5.68;1.85;;;8.50;99.90;;;;;;5055819;28;20024;-82
2023/11/10 11:27:38;;;;;;;7.43;1.95;;;8.50;99.90;;;;;;5058321;28;20310;-80
2023/11/10 11:30:12;;;;;;;13.00;1.95;;;8.50;99.90;;;;;;5052807;28;20147;-80
2023/11/10 11:32:41;;;;;;;8.23;1.88;;;8.50;99.90;;;;;;5059172;28;20470;-80
2023/11/10 11:35:14;;;;;;;5.70;1.75;;;8.50;99.90;;;;;;5060088;28;20578;-80
2023/11/10 11:37:43;;;;;;;6.82;2.20;;;8.50;99.90;;;;;;5050356;28;20037;-80
2023/11/10 11:40:09;;;;;;;7.90;2.15;;;8.50;99.90;;;;;;5056556;28;20029;-82
2023/11/10 11:42:37;;;;;;;9.63;1.88;;;8.50;99.90;;;;;;5053221;28;20029;-81
2023/11/10 11:45:19;;;;;;;7.47;1.73;;;8.50;99.90;;;;;;5056907;28;20028;-81
2023/11/10 11:47:49;;;;;;;10.95;2.00;;;8.50;99.90;;;;;;5061243;28;20124;-82
2023/11/10 11:50:15;;;;;;;6.40;1.88;;;8.60;99.90;;;;;;5046648;28;20049;-84
2023/11/10 11:52:41;;;;;;;5.90;1.58;;;8.60;99.90;;;;;;5047480;28;20056;-81
2023/11/10 11:55:07;;;;;;;8.63;1.75;;;8.60;99.90;;;;;;5065045;28;20024;-81
2023/11/10 11:57:35;;;;;;;9.73;1.95;;;8.60;99.90;;;;;;5061741;28;20033;-82
2023/11/10 12:00:02;;;;;;;5.50;1.85;;;8.70;99.90;;;;;;5037484;28;20025;-82
2023/11/10 12:02:28;;;;;;;8.18;2.00;;;8.70;99.90;;;;;;5057378;28;20577;-82
2023/11/10 12:04:54;;;;;;;9.27;2.13;;;8.70;99.90;;;;;;5060721;28;20059;-82
2023/11/10 12:07:19;;;;;;;6.28;2.10;;;8.70;99.90;;;;;;5055452;28;20516;-81
2023/11/10 12:09:46;;;;;;;5.05;1.80;;;8.70;99.90;;;;;;5047542;28;20040;-82
2023/11/10 12:12:13;;;;;;;7.47;1.60;;;8.80;99.90;;;;;;5052135;28;20104;-82
2023/11/10 12:14:39;;;;;;;7.07;1.90;;;8.80;99.90;;;;;;5050237;28;20032;-83
2023/11/10 12:17:06;;;;;;;6.15;2.00;;;8.80;99.90;;;;;;5045022;28;20021;-82
2023/11/10 12:19:32;;;;;;;5.18;1.80;;;8.80;99.90;;;;;;5041789;28;20029;-84
2023/11/10 12:21:59;;;;;;;7.90;1.73;;;8.90;99.90;;;;;;5060963;28;20029;-83
2023/11/10 12:24:25;;;;;;;4.72;1.48;;;8.90;99.90;;;;;;5057470;28;20048;-83
2023/11/10 12:26:52;;;;;;;3.53;1.20;;;8.90;99.90;;;;;;5046515;28;20104;-82
2023/11/10 12:29:26;;;;;;;5.07;1.70;;;8.90;99.90;;;;;;5044267;28;20065;-81
2023/11/10 12:31:52;;;;;;;6.80;1.50;;;9.00;99.90;;;;;;5049080;28;20032;-86
2023/11/10 12:34:18;;;;;;;6.05;1.38;;;9.00;99.90;;;;;;5048553;28;20467;-83
2023/11/10 12:36:46;;;;;;;8.02;1.40;;;9.00;99.90;;;;;;5050189;28;20021;-83
2023/11/10 12:39:18;;;;;;;7.72;1.58;;;9.00;99.90;;;;;;5052141;28;20044;-83
2023/11/10 12:41:47;;;;;;;3.05;1.25;;;9.10;99.90;;;;;;5070024;28;20031;-82
2023/11/10 12:44:17;;;;;;;4.82;1.40;;;9.10;99.90;;;;;;5066280;28;20038;-81
2023/11/10 12:47:08;;;;;;;7.03;1.70;;;9.10;99.90;;;;;;5057337;28;20052;-81
2023/11/10 12:49:34;;;;;;;4.63;1.27;;;9.10;99.90;;;;;;5059526;28;20038;-80
2023/11/10 12:52:09;;;;;;;5.57;1.77;;;9.20;99.90;;;;;;5057975;28;20021;-83
2023/11/10 12:54:39;;;;;;;5.20;1.50;;;9.20;99.90;;;;;;5050056;28;20021;-84